Luckenback, Texas
Current Conditions -  °F | °C
As of 9:15 AM on Friday 31 Oct 2014 (Local Time) from KT82 Reporting Station
Clear Clear  
Wind Chill: 59°   Ceiling: Unl
Heat Index: 59°   Visibility: 10mi
Dew Point: 49°   Wind: 12mph
Humidity: 70%   Direction: 20°NNE
Pressure: 30.3"   Gusts: NA
Location:  30.3069°N, 98.8978°W
Report Text: KT82 311415Z AUTO 02010KT 10SM CLR 15/10 A3030 RMK AO2 T01510096
Loading
Personal Weather Stations






























Interactive Weather Map
Tropical Storm Tracking
New forecast layout! Learn more

10-Day Weather Forecast

Advertisements
Track Severe Weather on mobile